sensor_id;sensor_type;location;lat;lon;timestamp;P1;durP1;ratioP1;P2;durP2;ratioP2
57345;SDS011;43181;50.974;18.244;2022-08-30T00:01:01;10.20;;;4.90;;
57345;SDS011;43181;50.974;18.244;2022-08-30T00:03:27;10.10;;;4.90;;
57345;SDS011;43181;50.974;18.244;2022-08-30T00:05:57;11.80;;;4.80;;
57345;SDS011;43181;50.974;18.244;2022-08-30T00:08:22;10.90;;;4.90;;
57345;SDS011;43181;50.974;18.244;2022-08-30T00:10:47;8.80;;;5.10;;
57345;SDS011;43181;50.974;18.244;2022-08-30T00:13:15;7.60;;;4.80;;
57345;SDS011;43181;50.974;18.244;2022-08-30T00:15:42;11.30;;;4.80;;
57345;SDS011;43181;50.974;18.244;2022-08-30T00:18:08;10.70;;;4.70;;
57345;SDS011;43181;50.974;18.244;2022-08-30T00:20:34;8.90;;;4.90;;
57345;SDS011;43181;50.974;18.244;2022-08-30T00:23:01;10.90;;;5.10;;
57345;SDS011;43181;50.974;18.244;2022-08-30T00:25:27;10.70;;;5.10;;
57345;SDS011;43181;50.974;18.244;2022-08-30T00:27:53;9.70;;;5.50;;
57345;SDS011;43181;50.974;18.244;2022-08-30T00:30:19;9.00;;;5.50;;
57345;SDS011;43181;50.974;18.244;2022-08-30T00:32:46;9.70;;;5.00;;
57345;SDS011;43181;50.974;18.244;2022-08-30T00:35:12;11.30;;;6.10;;
57345;SDS011;43181;50.974;18.244;2022-08-30T00:37:40;7.90;;;4.80;;
57345;SDS011;43181;50.974;18.244;2022-08-30T00:40:06;10.40;;;5.20;;
57345;SDS011;43181;50.974;18.244;2022-08-30T00:42:33;10.60;;;5.30;;
57345;SDS011;43181;50.974;18.244;2022-08-30T00:45:00;9.50;;;5.20;;
57345;SDS011;43181;50.974;18.244;2022-08-30T00:47:28;10.10;;;5.00;;
57345;SDS011;43181;50.974;18.244;2022-08-30T00:49:53;10.10;;;5.60;;
57345;SDS011;43181;50.974;18.244;2022-08-30T00:52:21;9.60;;;4.50;;
57345;SDS011;43181;50.974;18.244;2022-08-30T00:54:48;9.00;;;4.80;;
57345;SDS011;43181;50.974;18.244;2022-08-30T00:57:16;12.20;;;4.90;;
57345;SDS011;43181;50.974;18.244;2022-08-30T00:59:43;9.10;;;4.90;;
57345;SDS011;43181;50.974;18.244;2022-08-30T01:02:11;10.20;;;5.20;;
57345;SDS011;43181;50.974;18.244;2022-08-30T01:04:37;9.20;;;4.90;;
57345;SDS011;43181;50.974;18.244;2022-08-30T01:07:05;9.30;;;5.30;;
57345;SDS011;43181;50.974;18.244;2022-08-30T01:09:32;9.20;;;5.00;;
57345;SDS011;43181;50.974;18.244;2022-08-30T01:12:01;11.30;;;4.90;;
57345;SDS011;43181;50.974;18.244;2022-08-30T01:14:28;11.30;;;5.30;;
57345;SDS011;43181;50.974;18.244;2022-08-30T01:16:57;9.40;;;4.90;;
57345;SDS011;43181;50.974;18.244;2022-08-30T01:22:35;8.80;;;4.60;;
57345;SDS011;43181;50.974;18.244;2022-08-30T01:25:07;7.50;;;4.60;;
57345;SDS011;43181;50.974;18.244;2022-08-30T01:27:33;9.70;;;5.20;;
57345;SDS011;43181;50.974;18.244;2022-08-30T01:30:03;11.30;;;5.10;;
57345;SDS011;43181;50.974;18.244;2022-08-30T01:32:30;9.00;;;5.10;;
57345;SDS011;43181;50.974;18.244;2022-08-30T01:34:57;11.30;;;5.30;;
57345;SDS011;43181;50.974;18.244;2022-08-30T01:37:29;9.20;;;5.00;;
57345;SDS011;43181;50.974;18.244;2022-08-30T01:39:56;9.40;;;4.60;;
57345;SDS011;43181;50.974;18.244;2022-08-30T01:42:21;9.30;;;4.60;;
57345;SDS011;43181;50.974;18.244;2022-08-30T01:44:47;8.20;;;4.80;;
57345;SDS011;43181;50.974;18.244;2022-08-30T01:47:14;12.40;;;5.30;;
57345;SDS011;43181;50.974;18.244;2022-08-30T01:49:42;13.50;;;5.60;;
57345;SDS011;43181;50.974;18.244;2022-08-30T01:52:09;13.20;;;5.30;;
57345;SDS011;43181;50.974;18.244;2022-08-30T01:54:38;7.30;;;4.60;;
57345;SDS011;43181;50.974;18.244;2022-08-30T01:57:05;9.40;;;5.20;;
57345;SDS011;43181;50.974;18.244;2022-08-30T01:59:32;10.70;;;5.30;;
57345;SDS011;43181;50.974;18.244;2022-08-30T02:01:58;10.10;;;5.70;;
57345;SDS011;43181;50.974;18.244;2022-08-30T02:04:24;10.90;;;5.50;;
57345;SDS011;43181;50.974;18.244;2022-08-30T02:06:51;11.60;;;6.00;;
57345;SDS011;43181;50.974;18.244;2022-08-30T02:09:17;12.60;;;5.60;;
57345;SDS011;43181;50.974;18.244;2022-08-30T02:11:43;11.10;;;5.70;;
57345;SDS011;43181;50.974;18.244;2022-08-30T02:14:09;10.50;;;5.30;;
57345;SDS011;43181;50.974;18.244;2022-08-30T02:16:35;11.90;;;5.20;;
57345;SDS011;43181;50.974;18.244;2022-08-30T02:19:01;10.60;;;5.60;;
57345;SDS011;43181;50.974;18.244;2022-08-30T02:21:27;10.10;;;5.50;;
57345;SDS011;43181;50.974;18.244;2022-08-30T02:23:53;10.60;;;6.00;;
57345;SDS011;43181;50.974;18.244;2022-08-30T02:26:19;12.00;;;6.40;;
57345;SDS011;43181;50.974;18.244;2022-08-30T02:28:46;12.30;;;5.90;;
57345;SDS011;43181;50.974;18.244;2022-08-30T02:31:12;11.60;;;6.00;;
57345;SDS011;43181;50.974;18.244;2022-08-30T02:33:38;11.50;;;5.80;;
57345;SDS011;43181;50.974;18.244;2022-08-30T02:36:04;11.10;;;5.40;;
57345;SDS011;43181;50.974;18.244;2022-08-30T02:38:31;13.80;;;6.00;;
57345;SDS011;43181;50.974;18.244;2022-08-30T02:40:56;13.30;;;6.10;;
57345;SDS011;43181;50.974;18.244;2022-08-30T02:43:22;11.60;;;6.30;;
57345;SDS011;43181;50.974;18.244;2022-08-30T02:45:48;11.60;;;5.90;;
57345;SDS011;43181;50.974;18.244;2022-08-30T02:48:13;11.70;;;6.20;;
57345;SDS011;43181;50.974;18.244;2022-08-30T02:50:44;12.90;;;6.60;;
57345;SDS011;43181;50.974;18.244;2022-08-30T02:53:11;12.70;;;6.20;;
57345;SDS011;43181;50.974;18.244;2022-08-30T02:55:37;15.50;;;5.90;;
57345;SDS011;43181;50.974;18.244;2022-08-30T02:58:02;11.00;;;5.90;;
57345;SDS011;43181;50.974;18.244;2022-08-30T03:00:28;11.50;;;6.00;;
57345;SDS011;43181;50.974;18.244;2022-08-30T03:02:54;12.30;;;6.50;;
57345;SDS011;43181;50.974;18.244;2022-08-30T03:05:19;12.70;;;6.50;;
57345;SDS011;43181;50.974;18.244;2022-08-30T03:07:45;12.70;;;6.50;;
57345;SDS011;43181;50.974;18.244;2022-08-30T03:10:12;12.60;;;6.70;;
57345;SDS011;43181;50.974;18.244;2022-08-30T03:12:41;11.60;;;6.40;;
57345;SDS011;43181;50.974;18.244;2022-08-30T03:15:10;11.30;;;6.70;;
57345;SDS011;43181;50.974;18.244;2022-08-30T03:17:37;11.90;;;6.30;;
57345;SDS011;43181;50.974;18.244;2022-08-30T03:20:04;13.60;;;5.90;;
57345;SDS011;43181;50.974;18.244;2022-08-30T03:22:31;11.70;;;6.50;;
57345;SDS011;43181;50.974;18.244;2022-08-30T03:24:57;11.80;;;6.30;;
57345;SDS011;43181;50.974;18.244;2022-08-30T03:27:24;12.40;;;6.20;;
57345;SDS011;43181;50.974;18.244;2022-08-30T03:29:50;10.80;;;5.70;;
57345;SDS011;43181;50.974;18.244;2022-08-30T03:32:16;10.60;;;6.10;;
57345;SDS011;43181;50.974;18.244;2022-08-30T03:34:42;14.50;;;6.00;;
57345;SDS011;43181;50.974;18.244;2022-08-30T03:37:08;14.20;;;6.50;;
57345;SDS011;43181;50.974;18.244;2022-08-30T03:39:33;11.00;;;6.20;;
57345;SDS011;43181;50.974;18.244;2022-08-30T03:41:59;11.20;;;5.80;;
57345;SDS011;43181;50.974;18.244;2022-08-30T03:44:25;10.50;;;5.60;;
57345;SDS011;43181;50.974;18.244;2022-08-30T03:46:51;12.60;;;5.90;;
57345;SDS011;43181;50.974;18.244;2022-08-30T03:49:17;12.40;;;6.40;;
57345;SDS011;43181;50.974;18.244;2022-08-30T03:51:44;10.40;;;6.20;;
57345;SDS011;43181;50.974;18.244;2022-08-30T03:54:10;11.90;;;6.00;;
57345;SDS011;43181;50.974;18.244;2022-08-30T03:56:35;11.50;;;6.00;;
57345;SDS011;43181;50.974;18.244;2022-08-30T03:59:01;11.50;;;6.00;;
57345;SDS011;43181;50.974;18.244;2022-08-30T04:01:27;14.70;;;6.00;;
57345;SDS011;43181;50.974;18.244;2022-08-30T04:03:53;13.00;;;7.20;;
57345;SDS011;43181;50.974;18.244;2022-08-30T04:06:21;12.80;;;6.80;;
57345;SDS011;43181;50.974;18.244;2022-08-30T04:08:47;17.90;;;7.50;;
57345;SDS011;43181;50.974;18.244;2022-08-30T04:11:13;12.90;;;7.10;;
57345;SDS011;43181;50.974;18.244;2022-08-30T04:13:40;13.30;;;6.80;;
57345;SDS011;43181;50.974;18.244;2022-08-30T04:16:06;13.40;;;6.50;;
57345;SDS011;43181;50.974;18.244;2022-08-30T04:18:32;11.30;;;6.40;;
57345;SDS011;43181;50.974;18.244;2022-08-30T04:21:00;12.30;;;6.20;;
57345;SDS011;43181;50.974;18.244;2022-08-30T04:23:26;13.30;;;6.00;;
57345;SDS011;43181;50.974;18.244;2022-08-30T04:25:53;10.30;;;5.90;;
57345;SDS011;43181;50.974;18.244;2022-08-30T04:28:19;11.20;;;5.90;;
57345;SDS011;43181;50.974;18.244;2022-08-30T04:30:45;12.40;;;5.90;;
57345;SDS011;43181;50.974;18.244;2022-08-30T04:33:11;11.40;;;5.80;;
57345;SDS011;43181;50.974;18.244;2022-08-30T04:35:41;13.00;;;6.30;;
57345;SDS011;43181;50.974;18.244;2022-08-30T04:38:12;10.40;;;5.50;;
57345;SDS011;43181;50.974;18.244;2022-08-30T04:40:42;12.00;;;6.20;;
57345;SDS011;43181;50.974;18.244;2022-08-30T04:43:08;14.60;;;6.00;;
57345;SDS011;43181;50.974;18.244;2022-08-30T04:45:40;11.10;;;5.80;;
57345;SDS011;43181;50.974;18.244;2022-08-30T04:48:06;13.10;;;6.30;;
57345;SDS011;43181;50.974;18.244;2022-08-30T04:50:32;10.90;;;5.90;;
57345;SDS011;43181;50.974;18.244;2022-08-30T04:52:57;11.30;;;6.10;;
57345;SDS011;43181;50.974;18.244;2022-08-30T04:55:24;11.80;;;5.80;;
57345;SDS011;43181;50.974;18.244;2022-08-30T04:57:50;11.90;;;5.70;;
57345;SDS011;43181;50.974;18.244;2022-08-30T05:00:17;11.50;;;5.60;;
57345;SDS011;43181;50.974;18.244;2022-08-30T05:02:45;12.00;;;5.70;;
57345;SDS011;43181;50.974;18.244;2022-08-30T05:05:11;9.90;;;5.20;;
57345;SDS011;43181;50.974;18.244;2022-08-30T05:07:55;12.00;;;6.00;;
57345;SDS011;43181;50.974;18.244;2022-08-30T05:10:22;11.60;;;5.80;;
57345;SDS011;43181;50.974;18.244;2022-08-30T05:12:48;12.00;;;5.80;;
57345;SDS011;43181;50.974;18.244;2022-08-30T05:15:14;12.00;;;6.00;;
57345;SDS011;43181;50.974;18.244;2022-08-30T05:17:40;10.80;;;6.00;;
57345;SDS011;43181;50.974;18.244;2022-08-30T05:20:06;14.40;;;5.90;;
57345;SDS011;43181;50.974;18.244;2022-08-30T05:22:36;12.10;;;5.80;;
57345;SDS011;43181;50.974;18.244;2022-08-30T05:25:03;12.80;;;6.90;;
57345;SDS011;43181;50.974;18.244;2022-08-30T05:27:29;13.30;;;6.70;;
57345;SDS011;43181;50.974;18.244;2022-08-30T05:29:57;14.40;;;6.20;;
57345;SDS011;43181;50.974;18.244;2022-08-30T05:32:23;11.70;;;6.90;;
57345;SDS011;43181;50.974;18.244;2022-08-30T05:34:49;11.70;;;6.50;;
57345;SDS011;43181;50.974;18.244;2022-08-30T05:37:14;12.00;;;6.60;;
57345;SDS011;43181;50.974;18.244;2022-08-30T05:39:43;11.70;;;6.40;;
57345;SDS011;43181;50.974;18.244;2022-08-30T05:42:08;11.40;;;6.20;;
57345;SDS011;43181;50.974;18.244;2022-08-30T05:44:34;12.30;;;6.90;;
57345;SDS011;43181;50.974;18.244;2022-08-30T05:47:01;12.70;;;6.30;;
57345;SDS011;43181;50.974;18.244;2022-08-30T05:49:27;13.30;;;6.60;;
57345;SDS011;43181;50.974;18.244;2022-08-30T05:51:53;12.40;;;6.60;;
57345;SDS011;43181;50.974;18.244;2022-08-30T05:54:18;13.40;;;6.40;;
57345;SDS011;43181;50.974;18.244;2022-08-30T05:56:44;13.20;;;6.30;;
57345;SDS011;43181;50.974;18.244;2022-08-30T05:59:10;12.40;;;6.30;;
57345;SDS011;43181;50.974;18.244;2022-08-30T06:01:38;12.50;;;6.50;;
57345;SDS011;43181;50.974;18.244;2022-08-30T06:04:06;10.80;;;6.30;;
57345;SDS011;43181;50.974;18.244;2022-08-30T06:06:33;14.20;;;7.10;;
57345;SDS011;43181;50.974;18.244;2022-08-30T06:08:59;18.50;;;7.00;;
57345;SDS011;43181;50.974;18.244;2022-08-30T06:11:25;12.60;;;7.10;;
57345;SDS011;43181;50.974;18.244;2022-08-30T06:13:52;13.30;;;6.70;;
57345;SDS011;43181;50.974;18.244;2022-08-30T06:16:20;12.00;;;6.20;;
57345;SDS011;43181;50.974;18.244;2022-08-30T06:18:48;11.70;;;6.30;;
57345;SDS011;43181;50.974;18.244;2022-08-30T06:21:21;14.30;;;7.30;;
57345;SDS011;43181;50.974;18.244;2022-08-30T06:23:48;13.50;;;6.30;;
57345;SDS011;43181;50.974;18.244;2022-08-30T06:26:14;10.80;;;6.40;;
57345;SDS011;43181;50.974;18.244;2022-08-30T06:28:40;12.20;;;6.60;;
57345;SDS011;43181;50.974;18.244;2022-08-30T06:31:07;11.90;;;6.70;;
57345;SDS011;43181;50.974;18.244;2022-08-30T06:33:33;12.80;;;7.20;;
57345;SDS011;43181;50.974;18.244;2022-08-30T06:36:03;15.00;;;7.10;;
57345;SDS011;43181;50.974;18.244;2022-08-30T06:38:33;13.00;;;6.40;;
57345;SDS011;43181;50.974;18.244;2022-08-30T06:41:03;16.20;;;6.70;;
57345;SDS011;43181;50.974;18.244;2022-08-30T06:43:30;11.40;;;6.00;;
57345;SDS011;43181;50.974;18.244;2022-08-30T06:46:00;15.80;;;7.50;;
57345;SDS011;43181;50.974;18.244;2022-08-30T06:48:27;10.20;;;6.40;;
57345;SDS011;43181;50.974;18.244;2022-08-30T06:50:53;12.90;;;6.70;;
57345;SDS011;43181;50.974;18.244;2022-08-30T06:53:19;11.80;;;6.70;;
57345;SDS011;43181;50.974;18.244;2022-08-30T06:55:45;11.10;;;6.50;;
57345;SDS011;43181;50.974;18.244;2022-08-30T06:58:38;10.40;;;6.10;;
57345;SDS011;43181;50.974;18.244;2022-08-30T07:01:05;10.80;;;6.10;;
57345;SDS011;43181;50.974;18.244;2022-08-30T07:03:33;11.60;;;6.30;;
57345;SDS011;43181;50.974;18.244;2022-08-30T07:05:59;13.70;;;6.60;;
57345;SDS011;43181;50.974;18.244;2022-08-30T07:08:25;11.10;;;6.50;;
57345;SDS011;43181;50.974;18.244;2022-08-30T07:10:51;12.40;;;7.00;;
57345;SDS011;43181;50.974;18.244;2022-08-30T07:13:19;10.40;;;6.60;;
57345;SDS011;43181;50.974;18.244;2022-08-30T07:15:46;10.00;;;5.90;;
57345;SDS011;43181;50.974;18.244;2022-08-30T07:18:12;7.30;;;5.20;;
57345;SDS011;43181;50.974;18.244;2022-08-30T07:20:57;10.00;;;5.60;;
57345;SDS011;43181;50.974;18.244;2022-08-30T07:23:23;9.40;;;5.80;;
57345;SDS011;43181;50.974;18.244;2022-08-30T07:25:49;7.30;;;5.50;;
57345;SDS011;43181;50.974;18.244;2022-08-30T07:28:15;7.90;;;5.40;;
57345;SDS011;43181;50.974;18.244;2022-08-30T07:30:41;8.90;;;4.90;;
57345;SDS011;43181;50.974;18.244;2022-08-30T07:33:07;6.30;;;4.80;;
57345;SDS011;43181;50.974;18.244;2022-08-30T07:35:33;7.80;;;4.60;;
57345;SDS011;43181;50.974;18.244;2022-08-30T07:37:59;7.50;;;4.70;;
57345;SDS011;43181;50.974;18.244;2022-08-30T07:40:24;7.90;;;5.00;;
57345;SDS011;43181;50.974;18.244;2022-08-30T07:42:50;6.80;;;4.80;;
57345;SDS011;43181;50.974;18.244;2022-08-30T07:45:16;13.70;;;6.00;;
57345;SDS011;43181;50.974;18.244;2022-08-30T07:47:43;8.60;;;5.50;;
57345;SDS011;43181;50.974;18.244;2022-08-30T07:50:08;8.00;;;5.00;;
57345;SDS011;43181;50.974;18.244;2022-08-30T07:52:34;7.10;;;4.70;;
57345;SDS011;43181;50.974;18.244;2022-08-30T07:55:03;7.70;;;4.70;;
57345;SDS011;43181;50.974;18.244;2022-08-30T07:57:30;6.30;;;4.50;;
57345;SDS011;43181;50.974;18.244;2022-08-30T07:59:58;7.30;;;5.20;;
57345;SDS011;43181;50.974;18.244;2022-08-30T08:02:24;7.20;;;4.50;;
57345;SDS011;43181;50.974;18.244;2022-08-30T08:04:50;7.40;;;4.80;;
57345;SDS011;43181;50.974;18.244;2022-08-30T08:07:15;7.00;;;4.30;;
57345;SDS011;43181;50.974;18.244;2022-08-30T08:09:41;7.80;;;5.10;;
57345;SDS011;43181;50.974;18.244;2022-08-30T08:12:07;6.50;;;4.50;;
57345;SDS011;43181;50.974;18.244;2022-08-30T08:14:33;7.80;;;4.60;;
57345;SDS011;43181;50.974;18.244;2022-08-30T08:16:59;9.30;;;4.80;;
57345;SDS011;43181;50.974;18.244;2022-08-30T08:19:24;7.20;;;4.60;;
57345;SDS011;43181;50.974;18.244;2022-08-30T08:21:50;7.70;;;5.00;;
57345;SDS011;43181;50.974;18.244;2022-08-30T08:24:21;9.00;;;5.10;;
57345;SDS011;43181;50.974;18.244;2022-08-30T08:26:47;7.50;;;4.90;;
57345;SDS011;43181;50.974;18.244;2022-08-30T08:29:13;7.00;;;5.10;;
57345;SDS011;43181;50.974;18.244;2022-08-30T08:31:38;7.30;;;4.70;;
57345;SDS011;43181;50.974;18.244;2022-08-30T08:34:05;5.60;;;4.00;;
57345;SDS011;43181;50.974;18.244;2022-08-30T08:36:32;10.30;;;4.20;;
57345;SDS011;43181;50.974;18.244;2022-08-30T08:38:59;6.60;;;4.50;;
57345;SDS011;43181;50.974;18.244;2022-08-30T08:49:35;7.90;;;5.00;;
57345;SDS011;43181;50.974;18.244;2022-08-30T08:52:03;5.10;;;3.70;;
57345;SDS011;43181;50.974;18.244;2022-08-30T08:54:54;5.40;;;3.60;;
57345;SDS011;43181;50.974;18.244;2022-08-30T08:57:24;5.90;;;3.70;;
57345;SDS011;43181;50.974;18.244;2022-08-30T08:59:49;6.50;;;3.90;;
57345;SDS011;43181;50.974;18.244;2022-08-30T09:04:54;6.30;;;4.40;;
57345;SDS011;43181;50.974;18.244;2022-08-30T09:09:49;7.20;;;4.70;;
57345;SDS011;43181;50.974;18.244;2022-08-30T09:12:15;5.90;;;3.70;;
57345;SDS011;43181;50.974;18.244;2022-08-30T09:14:45;6.70;;;4.80;;
57345;SDS011;43181;50.974;18.244;2022-08-30T09:17:13;4.80;;;4.10;;
57345;SDS011;43181;50.974;18.244;2022-08-30T09:19:45;5.50;;;4.00;;
57345;SDS011;43181;50.974;18.244;2022-08-30T09:27:50;5.10;;;3.80;;
57345;SDS011;43181;50.974;18.244;2022-08-30T09:35:24;5.40;;;4.00;;
57345;SDS011;43181;50.974;18.244;2022-08-30T09:40:45;7.60;;;4.90;;
57345;SDS011;43181;50.974;18.244;2022-08-30T09:45:41;4.20;;;3.30;;
57345;SDS011;43181;50.974;18.244;2022-08-30T09:53:35;3.80;;;3.10;;
57345;SDS011;43181;50.974;18.244;2022-08-30T10:01:49;4.20;;;3.80;;
57345;SDS011;43181;50.974;18.244;2022-08-30T10:04:46;6.40;;;4.10;;
57345;SDS011;43181;50.974;18.244;2022-08-30T10:12:24;6.70;;;4.10;;
57345;SDS011;43181;50.974;18.244;2022-08-30T10:23:25;5.30;;;3.70;;
57345;SDS011;43181;50.974;18.244;2022-08-30T10:25:54;4.60;;;3.60;;
57345;SDS011;43181;50.974;18.244;2022-08-30T10:28:33;4.20;;;3.10;;
57345;SDS011;43181;50.974;18.244;2022-08-30T10:31:02;3.60;;;3.00;;
57345;SDS011;43181;50.974;18.244;2022-08-30T10:33:34;3.10;;;2.60;;
57345;SDS011;43181;50.974;18.244;2022-08-30T10:36:10;4.50;;;2.90;;
57345;SDS011;43181;50.974;18.244;2022-08-30T10:38:38;3.30;;;2.40;;
57345;SDS011;43181;50.974;18.244;2022-08-30T10:49:20;2.60;;;2.30;;
57345;SDS011;43181;50.974;18.244;2022-08-30T10:51:49;2.30;;;2.10;;
57345;SDS011;43181;50.974;18.244;2022-08-30T10:54:29;2.50;;;2.30;;
57345;SDS011;43181;50.974;18.244;2022-08-30T10:57:01;5.50;;;4.80;;
57345;SDS011;43181;50.974;18.244;2022-08-30T10:59:26;2.60;;;2.40;;
57345;SDS011;43181;50.974;18.244;2022-08-30T11:13:06;2.30;;;2.10;;
57345;SDS011;43181;50.974;18.244;2022-08-30T11:20:41;2.60;;;2.40;;
57345;SDS011;43181;50.974;18.244;2022-08-30T11:23:19;2.60;;;2.40;;
57345;SDS011;43181;50.974;18.244;2022-08-30T11:31:03;2.20;;;2.00;;
57345;SDS011;43181;50.974;18.244;2022-08-30T11:33:40;2.40;;;2.10;;
57345;SDS011;43181;50.974;18.244;2022-08-30T11:39:05;2.40;;;2.20;;
57345;SDS011;43181;50.974;18.244;2022-08-30T11:46:39;3.20;;;2.50;;
57345;SDS011;43181;50.974;18.244;2022-08-30T11:54:36;6.90;;;4.00;;
57345;SDS011;43181;50.974;18.244;2022-08-30T12:02:44;3.60;;;2.90;;
57345;SDS011;43181;50.974;18.244;2022-08-30T12:10:45;2.20;;;2.00;;
57345;SDS011;43181;50.974;18.244;2022-08-30T12:18:38;4.20;;;3.40;;
57345;SDS011;43181;50.974;18.244;2022-08-30T12:24:02;4.70;;;2.80;;
57345;SDS011;43181;50.974;18.244;2022-08-30T12:26:33;2.80;;;2.50;;
57345;SDS011;43181;50.974;18.244;2022-08-30T12:32:13;44.70;;;28.60;;
57345;SDS011;43181;50.974;18.244;2022-08-30T12:34:32;3.20;;;2.90;;
57345;SDS011;43181;50.974;18.244;2022-08-30T12:37:02;3.00;;;2.60;;
57345;SDS011;43181;50.974;18.244;2022-08-30T12:44:48;2.20;;;2.00;;
57345;SDS011;43181;50.974;18.244;2022-08-30T12:47:17;2.50;;;1.80;;
57345;SDS011;43181;50.974;18.244;2022-08-30T12:54:54;2.50;;;2.10;;
57345;SDS011;43181;50.974;18.244;2022-08-30T12:57:40;2.00;;;1.80;;
57345;SDS011;43181;50.974;18.244;2022-08-30T13:00:08;2.20;;;2.00;;
57345;SDS011;43181;50.974;18.244;2022-08-30T13:02:48;2.70;;;2.00;;
57345;SDS011;43181;50.974;18.244;2022-08-30T13:11:04;3.10;;;2.00;;
57345;SDS011;43181;50.974;18.244;2022-08-30T13:13:36;2.80;;;2.20;;
57345;SDS011;43181;50.974;18.244;2022-08-30T13:16:22;4.70;;;2.10;;
57345;SDS011;43181;50.974;18.244;2022-08-30T13:18:51;5.30;;;4.30;;
57345;SDS011;43181;50.974;18.244;2022-08-30T13:21:45;2.80;;;2.60;;
57345;SDS011;43181;50.974;18.244;2022-08-30T13:24:20;2.70;;;2.50;;
57345;SDS011;43181;50.974;18.244;2022-08-30T13:26:48;2.90;;;2.50;;
57345;SDS011;43181;50.974;18.244;2022-08-30T13:29:15;3.10;;;2.80;;
57345;SDS011;43181;50.974;18.244;2022-08-30T13:31:42;3.80;;;3.00;;
57345;SDS011;43181;50.974;18.244;2022-08-30T13:34:08;13.00;;;11.20;;
57345;SDS011;43181;50.974;18.244;2022-08-30T13:36:35;4.10;;;2.30;;
57345;SDS011;43181;50.974;18.244;2022-08-30T13:39:04;3.00;;;2.30;;
57345;SDS011;43181;50.974;18.244;2022-08-30T13:41:30;2.30;;;2.10;;
57345;SDS011;43181;50.974;18.244;2022-08-30T13:43:56;2.90;;;2.40;;
57345;SDS011;43181;50.974;18.244;2022-08-30T13:46:22;4.10;;;2.50;;
57345;SDS011;43181;50.974;18.244;2022-08-30T13:48:50;3.80;;;2.60;;
57345;SDS011;43181;50.974;18.244;2022-08-30T13:51:18;3.00;;;2.60;;
57345;SDS011;43181;50.974;18.244;2022-08-30T13:53:43;3.50;;;2.80;;
57345;SDS011;43181;50.974;18.244;2022-08-30T13:56:08;3.50;;;2.50;;
57345;SDS011;43181;50.974;18.244;2022-08-30T13:58:34;5.30;;;3.00;;
57345;SDS011;43181;50.974;18.244;2022-08-30T14:01:00;3.90;;;2.40;;
57345;SDS011;43181;50.974;18.244;2022-08-30T14:03:25;5.50;;;3.00;;
57345;SDS011;43181;50.974;18.244;2022-08-30T14:05:51;2.10;;;1.70;;
57345;SDS011;43181;50.974;18.244;2022-08-30T14:08:18;2.40;;;1.80;;
57345;SDS011;43181;50.974;18.244;2022-08-30T14:10:48;3.40;;;2.30;;
57345;SDS011;43181;50.974;18.244;2022-08-30T14:13:14;3.30;;;2.00;;
57345;SDS011;43181;50.974;18.244;2022-08-30T14:15:40;2.30;;;1.90;;
57345;SDS011;43181;50.974;18.244;2022-08-30T14:18:06;2.30;;;2.00;;
57345;SDS011;43181;50.974;18.244;2022-08-30T14:20:32;2.70;;;1.90;;
57345;SDS011;43181;50.974;18.244;2022-08-30T14:22:59;3.30;;;2.10;;
57345;SDS011;43181;50.974;18.244;2022-08-30T14:25:25;3.70;;;2.10;;
57345;SDS011;43181;50.974;18.244;2022-08-30T14:27:55;2.30;;;1.90;;
57345;SDS011;43181;50.974;18.244;2022-08-30T14:30:21;3.00;;;1.80;;
57345;SDS011;43181;50.974;18.244;2022-08-30T14:32:47;2.50;;;1.90;;
57345;SDS011;43181;50.974;18.244;2022-08-30T14:35:13;2.20;;;1.70;;
57345;SDS011;43181;50.974;18.244;2022-08-30T14:37:43;2.00;;;1.80;;
57345;SDS011;43181;50.974;18.244;2022-08-30T14:40:09;2.70;;;1.60;;
57345;SDS011;43181;50.974;18.244;2022-08-30T14:42:35;2.50;;;1.80;;
57345;SDS011;43181;50.974;18.244;2022-08-30T14:45:01;2.00;;;1.50;;
57345;SDS011;43181;50.974;18.244;2022-08-30T14:47:26;1.60;;;1.50;;
57345;SDS011;43181;50.974;18.244;2022-08-30T14:49:52;4.40;;;2.00;;
57345;SDS011;43181;50.974;18.244;2022-08-30T14:52:18;2.80;;;1.90;;
57345;SDS011;43181;50.974;18.244;2022-08-30T14:54:44;4.20;;;2.20;;
57345;SDS011;43181;50.974;18.244;2022-08-30T14:57:09;2.30;;;1.90;;
57345;SDS011;43181;50.974;18.244;2022-08-30T14:59:35;2.50;;;1.90;;
57345;SDS011;43181;50.974;18.244;2022-08-30T15:02:00;2.20;;;1.70;;
57345;SDS011;43181;50.974;18.244;2022-08-30T15:04:26;2.40;;;1.50;;
57345;SDS011;43181;50.974;18.244;2022-08-30T15:06:52;3.60;;;2.30;;
57345;SDS011;43181;50.974;18.244;2022-08-30T15:09:19;2.90;;;1.90;;
57345;SDS011;43181;50.974;18.244;2022-08-30T15:11:47;2.20;;;1.90;;
57345;SDS011;43181;50.974;18.244;2022-08-30T15:14:13;2.20;;;2.00;;
57345;SDS011;43181;50.974;18.244;2022-08-30T15:16:39;2.00;;;1.90;;
57345;SDS011;43181;50.974;18.244;2022-08-30T15:19:06;2.20;;;1.90;;
57345;SDS011;43181;50.974;18.244;2022-08-30T15:21:33;3.10;;;1.80;;
57345;SDS011;43181;50.974;18.244;2022-08-30T15:24:05;2.80;;;1.60;;
57345;SDS011;43181;50.974;18.244;2022-08-30T15:26:33;3.70;;;2.20;;
57345;SDS011;43181;50.974;18.244;2022-08-30T15:29:00;2.50;;;1.80;;
57345;SDS011;43181;50.974;18.244;2022-08-30T15:31:27;3.30;;;2.10;;
57345;SDS011;43181;50.974;18.244;2022-08-30T15:33:55;2.90;;;2.40;;
57345;SDS011;43181;50.974;18.244;2022-08-30T15:36:22;3.30;;;1.60;;
57345;SDS011;43181;50.974;18.244;2022-08-30T15:38:50;3.00;;;1.70;;
57345;SDS011;43181;50.974;18.244;2022-08-30T15:43:46;3.30;;;1.70;;
57345;SDS011;43181;50.974;18.244;2022-08-30T15:48:38;2.30;;;1.50;;
57345;SDS011;43181;50.974;18.244;2022-08-30T15:51:03;2.70;;;1.60;;
57345;SDS011;43181;50.974;18.244;2022-08-30T15:53:32;4.20;;;1.90;;
57345;SDS011;43181;50.974;18.244;2022-08-30T15:55:58;2.90;;;1.90;;
57345;SDS011;43181;50.974;18.244;2022-08-30T15:58:24;1.80;;;1.70;;
57345;SDS011;43181;50.974;18.244;2022-08-30T16:00:49;1.80;;;1.50;;
57345;SDS011;43181;50.974;18.244;2022-08-30T16:03:15;2.60;;;1.80;;
57345;SDS011;43181;50.974;18.244;2022-08-30T16:05:40;2.30;;;1.70;;
57345;SDS011;43181;50.974;18.244;2022-08-30T16:08:06;2.10;;;1.90;;
57345;SDS011;43181;50.974;18.244;2022-08-30T16:10:32;4.00;;;2.20;;
57345;SDS011;43181;50.974;18.244;2022-08-30T16:12:57;4.60;;;2.10;;
57345;SDS011;43181;50.974;18.244;2022-08-30T16:15:24;2.90;;;2.00;;
57345;SDS011;43181;50.974;18.244;2022-08-30T16:17:53;2.50;;;1.80;;
57345;SDS011;43181;50.974;18.244;2022-08-30T16:20:19;2.90;;;2.00;;
57345;SDS011;43181;50.974;18.244;2022-08-30T16:22:45;5.80;;;1.90;;
57345;SDS011;43181;50.974;18.244;2022-08-30T16:25:10;2.00;;;1.70;;
57345;SDS011;43181;50.974;18.244;2022-08-30T16:27:36;1.80;;;1.40;;
57345;SDS011;43181;50.974;18.244;2022-08-30T16:30:07;2.20;;;1.40;;
57345;SDS011;43181;50.974;18.244;2022-08-30T16:32:35;2.10;;;1.50;;
57345;SDS011;43181;50.974;18.244;2022-08-30T16:35:00;2.30;;;1.50;;
57345;SDS011;43181;50.974;18.244;2022-08-30T16:37:26;2.90;;;1.70;;
57345;SDS011;43181;50.974;18.244;2022-08-30T16:39:51;1.70;;;1.60;;
57345;SDS011;43181;50.974;18.244;2022-08-30T16:42:17;2.10;;;1.60;;
57345;SDS011;43181;50.974;18.244;2022-08-30T16:44:43;2.90;;;1.50;;
57345;SDS011;43181;50.974;18.244;2022-08-30T16:47:08;1.90;;;1.70;;
57345;SDS011;43181;50.974;18.244;2022-08-30T16:49:34;1.90;;;1.70;;
57345;SDS011;43181;50.974;18.244;2022-08-30T16:51:59;2.50;;;1.50;;
57345;SDS011;43181;50.974;18.244;2022-08-30T16:54:25;4.00;;;1.50;;